sensor_id;sensor_type;location;lat;lon;timestamp;temperature;humidity
49321;DHT22;35817;44.498;0.166;2022-07-18T00:00:32;24.20;69.40
49321;DHT22;35817;44.498;0.166;2022-07-18T00:03:20;24.30;69.70
49321;DHT22;35817;44.498;0.166;2022-07-18T00:06:41;24.20;70.20
49321;DHT22;35817;44.498;0.166;2022-07-18T00:10:05;24.10;70.40
49321;DHT22;35817;44.498;0.166;2022-07-18T00:13:39;24.00;71.10
49321;DHT22;35817;44.498;0.166;2022-07-18T00:16:07;23.90;70.50
49321;DHT22;35817;44.498;0.166;2022-07-18T00:18:33;23.90;70.80
49321;DHT22;35817;44.498;0.166;2022-07-18T00:21:01;23.80;70.80
49321;DHT22;35817;44.498;0.166;2022-07-18T00:23:27;23.70;70.80
49321;DHT22;35817;44.498;0.166;2022-07-18T00:25:53;23.60;71.30
49321;DHT22;35817;44.498;0.166;2022-07-18T00:28:19;23.50;71.70
49321;DHT22;35817;44.498;0.166;2022-07-18T00:30:45;23.40;72.00
49321;DHT22;35817;44.498;0.166;2022-07-18T00:33:12;23.30;72.10
49321;DHT22;35817;44.498;0.166;2022-07-18T00:35:59;23.30;72.30
49321;DHT22;35817;44.498;0.166;2022-07-18T00:39:11;23.20;72.80
49321;DHT22;35817;44.498;0.166;2022-07-18T00:42:38;23.10;73.10
49321;DHT22;35817;44.498;0.166;2022-07-18T00:46:28;23.10;73.20
49321;DHT22;35817;44.498;0.166;2022-07-18T00:49:58;23.00;73.00
49321;DHT22;35817;44.498;0.166;2022-07-18T00:52:27;22.90;73.00
49321;DHT22;35817;44.498;0.166;2022-07-18T00:58:09;22.80;73.80
49321;DHT22;35817;44.498;0.166;2022-07-18T01:00:35;22.80;73.90
49321;DHT22;35817;44.498;0.166;2022-07-18T01:03:21;22.70;74.00
49321;DHT22;35817;44.498;0.166;2022-07-18T01:05:47;22.80;74.10
49321;DHT22;35817;44.498;0.166;2022-07-18T01:08:13;22.70;74.10
49321;DHT22;35817;44.498;0.166;2022-07-18T01:10:39;22.70;74.20
49321;DHT22;35817;44.498;0.166;2022-07-18T01:13:05;22.80;74.20
49321;DHT22;35817;44.498;0.166;2022-07-18T01:15:46;22.70;74.00
49321;DHT22;35817;44.498;0.166;2022-07-18T01:18:17;22.80;73.70
49321;DHT22;35817;44.498;0.166;2022-07-18T01:21:28;22.70;73.30
49321;DHT22;35817;44.498;0.166;2022-07-18T01:24:43;22.70;73.40
49321;DHT22;35817;44.498;0.166;2022-07-18T01:27:30;22.60;73.40
49321;DHT22;35817;44.498;0.166;2022-07-18T01:29:56;22.60;73.60
49321;DHT22;35817;44.498;0.166;2022-07-18T01:32:26;22.50;73.90
49321;DHT22;35817;44.498;0.166;2022-07-18T01:35:16;22.50;74.10
49321;DHT22;35817;44.498;0.166;2022-07-18T01:38:27;22.40;74.20
49321;DHT22;35817;44.498;0.166;2022-07-18T01:41:35;22.30;74.20
49321;DHT22;35817;44.498;0.166;2022-07-18T01:44:02;22.30;74.50
49321;DHT22;35817;44.498;0.166;2022-07-18T01:46:29;22.30;74.60
49321;DHT22;35817;44.498;0.166;2022-07-18T01:49:17;22.20;74.60
49321;DHT22;35817;44.498;0.166;2022-07-18T01:52:07;22.20;74.50
49321;DHT22;35817;44.498;0.166;2022-07-18T01:54:37;22.20;74.10
49321;DHT22;35817;44.498;0.166;2022-07-18T01:57:31;22.20;74.10
49321;DHT22;35817;44.498;0.166;2022-07-18T02:00:20;22.20;73.70
49321;DHT22;35817;44.498;0.166;2022-07-18T02:02:47;22.30;72.90
49321;DHT22;35817;44.498;0.166;2022-07-18T02:05:34;22.30;73.10
49321;DHT22;35817;44.498;0.166;2022-07-18T02:08:03;22.30;73.50
49321;DHT22;35817;44.498;0.166;2022-07-18T02:10:40;22.20;73.60
49321;DHT22;35817;44.498;0.166;2022-07-18T02:13:37;22.20;73.90
49321;DHT22;35817;44.498;0.166;2022-07-18T02:16:14;22.10;74.10
49321;DHT22;35817;44.498;0.166;2022-07-18T02:18:41;22.00;74.40
49321;DHT22;35817;44.498;0.166;2022-07-18T02:21:36;21.90;74.60
49321;DHT22;35817;44.498;0.166;2022-07-18T02:24:30;21.90;74.80
49321;DHT22;35817;44.498;0.166;2022-07-18T02:26:59;21.80;75.00
49321;DHT22;35817;44.498;0.166;2022-07-18T02:29:47;21.80;75.10
49321;DHT22;35817;44.498;0.166;2022-07-18T02:32:55;21.80;75.20
49321;DHT22;35817;44.498;0.166;2022-07-18T02:36:01;21.70;75.30
49321;DHT22;35817;44.498;0.166;2022-07-18T02:38:28;21.70;75.50
49321;DHT22;35817;44.498;0.166;2022-07-18T02:41:14;21.60;75.60
49321;DHT22;35817;44.498;0.166;2022-07-18T02:43:43;21.60;75.70
49321;DHT22;35817;44.498;0.166;2022-07-18T02:46:30;21.60;76.10
49321;DHT22;35817;44.498;0.166;2022-07-18T02:48:58;21.50;76.50
49321;DHT22;35817;44.498;0.166;2022-07-18T02:51:28;21.50;76.80
49321;DHT22;35817;44.498;0.166;2022-07-18T02:53:56;21.50;77.00
49321;DHT22;35817;44.498;0.166;2022-07-18T02:56:22;21.40;77.40
49321;DHT22;35817;44.498;0.166;2022-07-18T02:58:57;21.40;77.80
49321;DHT22;35817;44.498;0.166;2022-07-18T03:01:22;21.40;78.10
49321;DHT22;35817;44.498;0.166;2022-07-18T03:03:48;21.30;78.40
49321;DHT22;35817;44.498;0.166;2022-07-18T03:06:14;21.20;78.80
49321;DHT22;35817;44.498;0.166;2022-07-18T03:08:39;21.20;79.00
49321;DHT22;35817;44.498;0.166;2022-07-18T03:11:05;21.10;79.10
49321;DHT22;35817;44.498;0.166;2022-07-18T03:13:31;21.20;79.50
49321;DHT22;35817;44.498;0.166;2022-07-18T03:15:57;21.20;79.50
49321;DHT22;35817;44.498;0.166;2022-07-18T03:18:23;21.10;79.50
49321;DHT22;35817;44.498;0.166;2022-07-18T03:20:51;21.10;79.70
49321;DHT22;35817;44.498;0.166;2022-07-18T03:23:17;21.10;79.90
49321;DHT22;35817;44.498;0.166;2022-07-18T03:25:42;21.10;80.00
49321;DHT22;35817;44.498;0.166;2022-07-18T03:28:08;21.10;80.50
49321;DHT22;35817;44.498;0.166;2022-07-18T03:30:34;21.00;81.00
49321;DHT22;35817;44.498;0.166;2022-07-18T03:32:59;21.00;81.20
49321;DHT22;35817;44.498;0.166;2022-07-18T03:35:25;20.90;81.20
49321;DHT22;35817;44.498;0.166;2022-07-18T03:37:51;20.90;81.40
49321;DHT22;35817;44.498;0.166;2022-07-18T03:40:17;20.80;81.50
49321;DHT22;35817;44.498;0.166;2022-07-18T03:42:43;20.70;81.50
49321;DHT22;35817;44.498;0.166;2022-07-18T03:45:09;20.70;82.00
49321;DHT22;35817;44.498;0.166;2022-07-18T03:47:35;20.60;82.20
49321;DHT22;35817;44.498;0.166;2022-07-18T03:50:01;20.60;83.00
49321;DHT22;35817;44.498;0.166;2022-07-18T03:52:26;20.60;84.70
49321;DHT22;35817;44.498;0.166;2022-07-18T03:54:52;20.50;85.70
49321;DHT22;35817;44.498;0.166;2022-07-18T03:57:18;20.50;86.30
49321;DHT22;35817;44.498;0.166;2022-07-18T03:59:44;20.40;86.00
49321;DHT22;35817;44.498;0.166;2022-07-18T04:02:09;20.40;86.70
49321;DHT22;35817;44.498;0.166;2022-07-18T04:04:35;20.40;87.00
49321;DHT22;35817;44.498;0.166;2022-07-18T04:07:01;20.40;87.30
49321;DHT22;35817;44.498;0.166;2022-07-18T04:09:29;20.30;87.80
49321;DHT22;35817;44.498;0.166;2022-07-18T04:11:55;20.30;88.40
49321;DHT22;35817;44.498;0.166;2022-07-18T04:14:21;20.30;89.20
49321;DHT22;35817;44.498;0.166;2022-07-18T04:16:48;20.20;89.70
49321;DHT22;35817;44.498;0.166;2022-07-18T04:19:14;20.20;90.00
49321;DHT22;35817;44.498;0.166;2022-07-18T04:21:40;20.10;90.20
49321;DHT22;35817;44.498;0.166;2022-07-18T04:24:07;20.10;90.70
49321;DHT22;35817;44.498;0.166;2022-07-18T04:26:33;20.00;91.20
49321;DHT22;35817;44.498;0.166;2022-07-18T04:28:59;20.00;91.20
49321;DHT22;35817;44.498;0.166;2022-07-18T04:31:25;19.90;91.20
49321;DHT22;35817;44.498;0.166;2022-07-18T04:33:50;19.90;91.40
49321;DHT22;35817;44.498;0.166;2022-07-18T04:36:16;19.90;91.80
49321;DHT22;35817;44.498;0.166;2022-07-18T04:38:43;19.90;91.90
49321;DHT22;35817;44.498;0.166;2022-07-18T04:41:09;19.80;92.00
49321;DHT22;35817;44.498;0.166;2022-07-18T04:43:35;19.80;92.00
49321;DHT22;35817;44.498;0.166;2022-07-18T04:46:01;19.80;92.10
49321;DHT22;35817;44.498;0.166;2022-07-18T04:48:27;19.90;92.20
49321;DHT22;35817;44.498;0.166;2022-07-18T04:50:53;19.90;92.10
49321;DHT22;35817;44.498;0.166;2022-07-18T04:53:19;20.00;92.10
49321;DHT22;35817;44.498;0.166;2022-07-18T04:55:44;20.00;91.90
49321;DHT22;35817;44.498;0.166;2022-07-18T04:58:10;20.10;91.70
49321;DHT22;35817;44.498;0.166;2022-07-18T05:00:37;20.20;91.50
49321;DHT22;35817;44.498;0.166;2022-07-18T05:03:03;20.20;91.30
49321;DHT22;35817;44.498;0.166;2022-07-18T05:05:29;20.30;91.30
49321;DHT22;35817;44.498;0.166;2022-07-18T05:07:55;20.40;91.20
49321;DHT22;35817;44.498;0.166;2022-07-18T05:10:24;20.40;91.20
49321;DHT22;35817;44.498;0.166;2022-07-18T05:12:52;20.50;91.30
49321;DHT22;35817;44.498;0.166;2022-07-18T05:15:20;20.50;91.20
49321;DHT22;35817;44.498;0.166;2022-07-18T05:17:48;20.50;91.20
49321;DHT22;35817;44.498;0.166;2022-07-18T05:20:17;20.50;91.10
49321;DHT22;35817;44.498;0.166;2022-07-18T05:23:09;20.60;91.10
49321;DHT22;35817;44.498;0.166;2022-07-18T05:26:40;20.60;91.10
49321;DHT22;35817;44.498;0.166;2022-07-18T05:30:35;20.60;90.90
49321;DHT22;35817;44.498;0.166;2022-07-18T05:34:15;20.70;90.70
49321;DHT22;35817;44.498;0.166;2022-07-18T05:36:42;20.80;90.50
49321;DHT22;35817;44.498;0.166;2022-07-18T05:39:09;20.90;90.30
49321;DHT22;35817;44.498;0.166;2022-07-18T05:41:38;20.90;90.20
49321;DHT22;35817;44.498;0.166;2022-07-18T05:44:12;21.00;90.10
49321;DHT22;35817;44.498;0.166;2022-07-18T05:46:43;21.00;90.10
49321;DHT22;35817;44.498;0.166;2022-07-18T05:49:39;21.10;90.40
49321;DHT22;35817;44.498;0.166;2022-07-18T05:52:17;21.10;90.70
49321;DHT22;35817;44.498;0.166;2022-07-18T05:55:35;21.20;90.90
49321;DHT22;35817;44.498;0.166;2022-07-18T05:58:55;21.20;91.10
49321;DHT22;35817;44.498;0.166;2022-07-18T06:01:21;21.30;91.20
49321;DHT22;35817;44.498;0.166;2022-07-18T06:03:48;21.30;91.20
49321;DHT22;35817;44.498;0.166;2022-07-18T06:06:22;21.40;91.40
49321;DHT22;35817;44.498;0.166;2022-07-18T06:08:51;21.50;91.50
49321;DHT22;35817;44.498;0.166;2022-07-18T06:11:17;21.50;91.50
49321;DHT22;35817;44.498;0.166;2022-07-18T06:57:45;23.50;88.30
49321;DHT22;35817;44.498;0.166;2022-07-18T07:00:13;23.60;88.80
49321;DHT22;35817;44.498;0.166;2022-07-18T07:06:12;23.80;89.00
49321;DHT22;35817;44.498;0.166;2022-07-18T07:08:48;23.90;89.00
49321;DHT22;35817;44.498;0.166;2022-07-18T08:24:03;29.60;59.20
49321;DHT22;35817;44.498;0.166;2022-07-18T08:26:41;29.80;58.80
49321;DHT22;35817;44.498;0.166;2022-07-18T08:29:08;29.90;57.10
49321;DHT22;35817;44.498;0.166;2022-07-18T08:32:27;30.00;55.90
49321;DHT22;35817;44.498;0.166;2022-07-18T08:34:59;30.20;55.10
49321;DHT22;35817;44.498;0.166;2022-07-18T08:37:51;30.30;55.10
49321;DHT22;35817;44.498;0.166;2022-07-18T08:40:16;30.50;55.20
49321;DHT22;35817;44.498;0.166;2022-07-18T08:43:07;30.50;54.60
49321;DHT22;35817;44.498;0.166;2022-07-18T08:46:05;30.60;54.90
49321;DHT22;35817;44.498;0.166;2022-07-18T08:49:41;30.70;54.70
49321;DHT22;35817;44.498;0.166;2022-07-18T08:52:46;30.90;54.30
49321;DHT22;35817;44.498;0.166;2022-07-18T08:59:50;31.10;55.50
49321;DHT22;35817;44.498;0.166;2022-07-18T09:02:26;31.20;55.10
49321;DHT22;35817;44.498;0.166;2022-07-18T09:04:53;31.30;54.60
49321;DHT22;35817;44.498;0.166;2022-07-18T09:07:27;31.30;54.00
49321;DHT22;35817;44.498;0.166;2022-07-18T09:09:57;31.40;54.20
49321;DHT22;35817;44.498;0.166;2022-07-18T09:12:25;31.60;54.10
49321;DHT22;35817;44.498;0.166;2022-07-18T09:14:52;31.70;53.90
49321;DHT22;35817;44.498;0.166;2022-07-18T09:17:45;31.80;54.30
49321;DHT22;35817;44.498;0.166;2022-07-18T09:20:39;31.90;54.30
49321;DHT22;35817;44.498;0.166;2022-07-18T09:27:23;32.20;56.60
49321;DHT22;35817;44.498;0.166;2022-07-18T09:34:03;32.40;53.40
49321;DHT22;35817;44.498;0.166;2022-07-18T09:37:24;32.70;54.10
49321;DHT22;35817;44.498;0.166;2022-07-18T09:40:03;32.90;53.80
49321;DHT22;35817;44.498;0.166;2022-07-18T09:46:21;33.30;54.80
49321;DHT22;35817;44.498;0.166;2022-07-18T09:53:15;33.60;51.30
49321;DHT22;35817;44.498;0.166;2022-07-18T09:56:28;33.90;51.40
49321;DHT22;35817;44.498;0.166;2022-07-18T10:00:09;34.10;52.90
49321;DHT22;35817;44.498;0.166;2022-07-18T12:44:27;50.90;35.80
49321;DHT22;35817;44.498;0.166;2022-07-18T12:46:54;51.20;35.50
49321;DHT22;35817;44.498;0.166;2022-07-18T14:06:44;53.40;37.20
49321;DHT22;35817;44.498;0.166;2022-07-18T14:09:13;53.70;36.10
49321;DHT22;35817;44.498;0.166;2022-07-18T14:12:01;53.60;32.90
49321;DHT22;35817;44.498;0.166;2022-07-18T14:14:27;53.10;32.60
49321;DHT22;35817;44.498;0.166;2022-07-18T14:16:56;52.70;35.40
49321;DHT22;35817;44.498;0.166;2022-07-18T14:19:22;52.80;34.00
49321;DHT22;35817;44.498;0.166;2022-07-18T14:21:53;52.80;36.40
49321;DHT22;35817;44.498;0.166;2022-07-18T14:24:19;53.10;35.00
49321;DHT22;35817;44.498;0.166;2022-07-18T14:40:56;53.10;35.80
49321;DHT22;35817;44.498;0.166;2022-07-18T15:05:05;55.20;37.10
49321;DHT22;35817;44.498;0.166;2022-07-18T15:12:52;55.20;31.90
49321;DHT22;35817;44.498;0.166;2022-07-18T15:15:48;54.60;32.60
49321;DHT22;35817;44.498;0.166;2022-07-18T15:19:19;54.10;32.60
49321;DHT22;35817;44.498;0.166;2022-07-18T15:29:06;54.20;33.20
49321;DHT22;35817;44.498;0.166;2022-07-18T15:32:04;54.30;35.30
49321;DHT22;35817;44.498;0.166;2022-07-18T16:06:03;53.40;36.00
49321;DHT22;35817;44.498;0.166;2022-07-18T16:08:40;52.90;36.60
49321;DHT22;35817;44.498;0.166;2022-07-18T19:10:15;35.50;43.20
49321;DHT22;35817;44.498;0.166;2022-07-18T19:12:42;35.30;43.40
49321;DHT22;35817;44.498;0.166;2022-07-18T19:15:09;35.10;43.30
49321;DHT22;35817;44.498;0.166;2022-07-18T19:17:42;35.00;43.20
